Orford, Canada
Current Conditions -  °F | °C
As of 8:00 AM on Saturday 20 Dec 2014 (Local Time) from CYSC Reporting Station
Moderate Snow Moderate Snow  
Wind Chill:   Ceiling: 200
Heat Index:   Visibility: 0.5mi
Dew Point:   Wind: 2mph
Humidity: 92%   Direction: 60°ENE
Pressure: 30.3"   Gusts: NA
Location:  45.31°N, 72.17°W
Report Text: CYSC 201300Z AUTO 06002KT 1/2SM SN OVC002 M14/M15 A3030 RMK SLP280
Loading
Personal Weather Stations






























Interactive Weather Map New forecast layout! Learn more

10-Day Weather Forecast

Advertisements
Track Severe Weather on mobile